Time;durP1;ratioP1;P1;durP2;ratioP2;P2;SDS_P1;SDS_P2;PMS_P1;PMS_P2;Temp;Humidity;BMP_temperature;BMP_pressure;BME280_temperature;BME280_humidity;BME280_pressure;Samples;Min_cycle;Max_cycle;Signal;HPM_P1;HPM_P2
2024/01/13 00:01:21;;;;;;;78.60;34.50;;;-3.20;99.90;;;;;;5114454;27;20181;-73
2024/01/13 00:03:47;;;;;;;81.60;37.33;;;-3.30;99.90;;;;;;5133172;27;20200;-73
2024/01/13 00:06:13;;;;;;;84.20;39.03;;;-3.30;99.90;;;;;;5114677;27;20177;-73
2024/01/13 00:08:39;;;;;;;76.45;38.08;;;-3.30;99.90;;;;;;5114698;27;20193;-73
2024/01/13 00:11:05;;;;;;;78.67;36.20;;;-3.30;99.90;;;;;;5133045;27;20678;-73
2024/01/13 00:13:30;;;;;;;78.33;37.27;;;-3.50;99.90;;;;;;5133238;27;20285;-72
2024/01/13 00:15:56;;;;;;;76.50;36.07;;;-3.50;99.90;;;;;;5132965;27;20180;-73
2024/01/13 00:18:21;;;;;;;81.30;36.70;;;-3.40;99.90;;;;;;5114453;27;20209;-73
2024/01/13 00:20:47;;;;;;;80.67;36.60;;;-3.50;99.90;;;;;;5132854;27;20192;-73
2024/01/13 00:23:12;;;;;;;79.60;37.10;;;-3.60;99.90;;;;;;5132799;27;20216;-72
2024/01/13 00:25:38;;;;;;;73.77;36.93;;;-3.70;99.90;;;;;;5132653;27;20189;-73
2024/01/13 00:28:04;;;;;;;79.90;32.80;;;-3.70;99.90;;;;;;5132600;27;20208;-73
2024/01/13 00:30:29;;;;;;;72.70;35.57;;;-3.70;99.90;;;;;;5096976;27;20181;-71
2024/01/13 00:32:55;;;;;;;70.77;33.47;;;-3.80;99.90;;;;;;5114346;27;20878;-73
2024/01/13 00:35:20;;;;;;;75.50;33.57;;;-3.70;99.90;;;;;;5114224;27;20261;-73
2024/01/13 00:37:46;;;;;;;73.37;35.60;;;-3.60;99.90;;;;;;5132609;27;20256;-73
2024/01/13 00:40:14;;;;;;;63.40;30.10;;;-3.50;99.90;;;;;;5096863;27;20197;-73
2024/01/13 00:42:43;;;;;;;63.97;32.28;;;-3.40;99.90;;;;;;5097371;27;20234;-73
2024/01/13 00:45:09;;;;;;;70.70;33.55;;;-3.30;99.90;;;;;;5096903;27;20268;-73
2024/01/13 00:47:34;;;;;;;71.00;31.37;;;-3.40;99.90;;;;;;5131591;27;20275;-72
2024/01/13 00:50:00;;;;;;;63.80;33.00;;;-3.50;99.90;;;;;;5113876;27;20616;-72
2024/01/13 00:52:26;;;;;;;61.40;32.83;;;-3.50;99.90;;;;;;5113822;27;20690;-72
2024/01/13 00:54:52;;;;;;;70.53;35.38;;;-3.60;99.90;;;;;;5132266;27;20190;-72
2024/01/13 00:57:18;;;;;;;74.60;34.37;;;-3.50;99.90;;;;;;5132811;27;20253;-72
2024/01/13 00:59:44;;;;;;;61.13;31.97;;;-3.50;99.90;;;;;;5114546;27;20415;-72
2024/01/13 01:02:09;;;;;;;65.00;31.67;;;-3.60;99.90;;;;;;5114516;27;20208;-72
2024/01/13 01:04:35;;;;;;;64.47;33.40;;;-3.70;99.90;;;;;;5114265;27;20174;-72
2024/01/13 01:07:00;;;;;;;72.63;34.00;;;-3.70;99.90;;;;;;5113365;27;20707;-72
2024/01/13 01:09:26;;;;;;;72.77;32.97;;;-3.70;99.90;;;;;;5113819;27;20221;-73
2024/01/13 01:11:51;;;;;;;64.43;33.13;;;-3.80;99.90;;;;;;5132131;27;20189;-72
2024/01/13 01:14:17;;;;;;;64.40;33.27;;;-3.70;99.90;;;;;;5132455;27;20196;-72
2024/01/13 01:16:43;;;;;;;56.83;30.90;;;-3.70;99.90;;;;;;5132243;27;20265;-72
2024/01/13 01:19:08;;;;;;;64.27;30.40;;;-3.80;99.90;;;;;;5113453;27;20205;-72
2024/01/13 01:21:35;;;;;;;65.20;31.13;;;-3.80;99.90;;;;;;5131787;27;20220;-72
2024/01/13 01:24:00;;;;;;;55.03;30.63;;;-3.80;99.90;;;;;;5131610;27;20184;-72
2024/01/13 01:26:26;;;;;;;64.83;31.50;;;-3.80;99.90;;;;;;5113321;27;20256;-72
2024/01/13 01:28:51;;;;;;;64.33;32.73;;;-3.70;99.90;;;;;;5131577;27;20200;-72
2024/01/13 01:31:17;;;;;;;61.10;31.13;;;-3.60;99.90;;;;;;5113424;27;20642;-72
2024/01/13 01:33:43;;;;;;;59.07;31.30;;;-3.60;99.90;;;;;;5113136;27;20187;-72
2024/01/13 01:36:08;;;;;;;80.03;33.00;;;-3.70;99.90;;;;;;5096027;27;20252;-72
2024/01/13 01:38:34;;;;;;;62.93;30.77;;;-3.70;99.90;;;;;;5131596;27;20280;-72
2024/01/13 01:41:00;;;;;;;64.30;32.67;;;-3.70;99.90;;;;;;5131867;27;20259;-72
2024/01/13 01:43:25;;;;;;;58.13;29.70;;;-3.60;99.90;;;;;;5131836;27;20205;-72
2024/01/13 01:45:51;;;;;;;60.27;32.07;;;-3.70;99.90;;;;;;5131467;27;20720;-72
2024/01/13 01:48:27;;;;;;;62.03;31.45;;;-3.80;99.90;;;;;;5131356;27;20201;-72
2024/01/13 01:50:53;;;;;;;58.33;30.52;;;-3.70;99.90;;;;;;5131754;27;20621;-72
2024/01/13 01:53:19;;;;;;;62.40;31.33;;;-3.70;99.90;;;;;;5113235;27;20187;-72
2024/01/13 01:55:45;;;;;;;64.00;33.65;;;-3.70;99.90;;;;;;5131756;27;20345;-72
2024/01/13 01:58:11;;;;;;;63.30;31.23;;;-3.70;99.90;;;;;;5131614;27;20205;-72
2024/01/13 02:00:37;;;;;;;71.38;31.85;;;-3.60;99.90;;;;;;5131791;27;20181;-73
2024/01/13 02:03:03;;;;;;;61.30;31.97;;;-3.60;99.90;;;;;;5113231;27;20219;-72
2024/01/13 02:05:29;;;;;;;63.53;33.60;;;-3.60;99.90;;;;;;5131574;27;20169;-72
2024/01/13 02:07:55;;;;;;;64.87;31.97;;;-3.50;99.90;;;;;;5131323;27;20953;-72
2024/01/13 02:10:22;;;;;;;65.03;32.00;;;-3.50;99.90;;;;;;5112992;27;20552;-72
2024/01/13 02:12:48;;;;;;;53.47;28.70;;;-3.60;99.90;;;;;;5130998;27;20185;-72
2024/01/13 02:15:13;;;;;;;65.97;32.23;;;-3.60;99.90;;;;;;5131230;27;20191;-72
2024/01/13 02:17:39;;;;;;;59.87;30.83;;;-3.70;99.90;;;;;;5131052;27;20781;-72
2024/01/13 02:20:07;;;;;;;62.83;32.10;;;-3.70;99.90;;;;;;5130839;27;20619;-72
2024/01/13 02:22:33;;;;;;;66.20;33.85;;;-3.90;99.90;;;;;;5130508;27;20208;-72
2024/01/13 02:25:03;;;;;;;59.03;31.17;;;-4.00;99.90;;;;;;5131278;27;20177;-72
2024/01/13 02:27:29;;;;;;;68.90;33.80;;;-4.00;99.90;;;;;;5112128;27;20946;-72
2024/01/13 02:29:54;;;;;;;66.73;32.60;;;-4.00;99.90;;;;;;5130565;27;20216;-72
2024/01/13 02:32:20;;;;;;;57.23;27.07;;;-4.00;99.90;;;;;;5130352;27;20200;-72
2024/01/13 02:34:46;;;;;;;59.78;29.77;;;-4.10;99.90;;;;;;5130358;27;20212;-72
2024/01/13 02:37:12;;;;;;;64.27;31.57;;;-4.20;99.90;;;;;;5130194;27;20676;-72
2024/01/13 02:39:37;;;;;;;61.20;30.50;;;-4.20;99.90;;;;;;5111608;27;20180;-72
2024/01/13 02:42:03;;;;;;;68.00;31.40;;;-4.20;99.90;;;;;;5111417;27;20247;-72
2024/01/13 02:44:29;;;;;;;74.03;31.92;;;-4.20;99.90;;;;;;5111650;27;20905;-72
2024/01/13 02:46:55;;;;;;;81.90;33.73;;;-4.30;99.90;;;;;;5130023;27;20181;-72
2024/01/13 02:49:21;;;;;;;76.85;35.35;;;-4.40;99.90;;;;;;5111413;27;20181;-72
2024/01/13 02:51:47;;;;;;;71.57;32.77;;;-4.30;99.90;;;;;;5129927;27;20229;-72
2024/01/13 02:54:12;;;;;;;72.83;32.70;;;-4.20;99.90;;;;;;5129926;27;20185;-72
2024/01/13 02:56:38;;;;;;;71.77;34.37;;;-4.20;99.90;;;;;;5111120;27;20327;-72
2024/01/13 02:59:03;;;;;;;75.93;32.70;;;-4.20;99.90;;;;;;5111189;27;20200;-72
2024/01/13 03:01:32;;;;;;;74.40;31.90;;;-4.20;99.90;;;;;;5129806;27;20233;-72
2024/01/13 03:03:58;;;;;;;66.20;30.92;;;-4.40;99.90;;;;;;5129832;27;20185;-72
2024/01/13 03:06:24;;;;;;;72.80;34.13;;;-4.40;99.90;;;;;;5129851;27;20229;-72
2024/01/13 03:08:51;;;;;;;75.80;34.00;;;-4.30;99.90;;;;;;5129549;27;20217;-72
2024/01/13 03:11:16;;;;;;;71.68;33.90;;;-4.20;99.90;;;;;;5110543;27;20183;-72
2024/01/13 03:13:43;;;;;;;74.30;32.90;;;-4.10;99.90;;;;;;5129540;27;20177;-72
2024/01/13 03:16:08;;;;;;;69.22;32.05;;;-4.30;99.90;;;;;;5129529;27;20245;-73
2024/01/13 03:18:34;;;;;;;72.50;34.80;;;-4.30;99.90;;;;;;5129433;27;20639;-73
2024/01/13 03:21:02;;;;;;;78.90;32.43;;;-4.20;99.90;;;;;;5129541;27;20181;-73
2024/01/13 03:23:28;;;;;;;72.78;33.30;;;-4.10;99.90;;;;;;5129323;27;20232;-73
2024/01/13 03:25:54;;;;;;;74.38;30.77;;;-4.10;99.90;;;;;;5129332;27;20691;-72
2024/01/13 03:28:20;;;;;;;74.33;32.37;;;-4.10;99.90;;;;;;5129371;27;20313;-73
2024/01/13 03:30:46;;;;;;;72.78;32.80;;;-4.10;99.90;;;;;;5129424;27;20173;-72
2024/01/13 03:33:12;;;;;;;69.17;33.53;;;-4.00;99.90;;;;;;5129531;28;20181;-72
2024/01/13 03:35:37;;;;;;;75.60;32.97;;;-4.00;99.90;;;;;;5129433;28;20189;-72
2024/01/13 03:38:03;;;;;;;70.50;32.70;;;-4.00;99.90;;;;;;5129081;28;20224;-72
2024/01/13 03:40:28;;;;;;;69.60;33.23;;;-4.00;99.90;;;;;;5129468;28;20193;-72
2024/01/13 03:42:54;;;;;;;69.70;33.07;;;-4.10;99.90;;;;;;5093690;28;20247;-73
2024/01/13 03:45:19;;;;;;;66.13;32.43;;;-4.00;99.90;;;;;;5129297;28;20181;-72
2024/01/13 03:47:45;;;;;;;73.73;32.50;;;-4.00;99.90;;;;;;5093820;28;20346;-73
2024/01/13 03:50:12;;;;;;;74.03;35.83;;;-4.00;99.90;;;;;;5129168;28;20196;-73
2024/01/13 03:52:38;;;;;;;69.93;33.00;;;-4.00;99.90;;;;;;5129206;28;20271;-72
2024/01/13 03:55:04;;;;;;;73.53;32.10;;;-4.00;99.90;;;;;;5129205;28;20267;-72
2024/01/13 03:57:29;;;;;;;75.37;34.13;;;-4.00;99.90;;;;;;5129119;28;20242;-73
2024/01/13 03:59:55;;;;;;;76.53;33.80;;;-3.90;99.90;;;;;;5110520;28;20434;-73
2024/01/13 04:02:20;;;;;;;71.63;32.40;;;-3.90;99.90;;;;;;5093721;28;20220;-72
2024/01/13 04:04:46;;;;;;;64.87;31.40;;;-3.90;99.90;;;;;;5129163;28;20671;-72
2024/01/13 04:07:11;;;;;;;78.67;33.23;;;-4.00;99.90;;;;;;5129082;28;20212;-73
2024/01/13 04:09:39;;;;;;;79.73;34.90;;;-3.90;99.90;;;;;;5129140;28;20182;-72
2024/01/13 04:12:06;;;;;;;80.63;36.00;;;-4.00;99.90;;;;;;5110784;28;20180;-72
2024/01/13 04:14:32;;;;;;;67.35;32.05;;;-4.00;99.90;;;;;;5093453;28;20189;-73
2024/01/13 04:16:59;;;;;;;73.47;32.07;;;-4.00;99.90;;;;;;5128906;28;20193;-73
2024/01/13 04:19:25;;;;;;;72.57;33.85;;;-4.00;99.90;;;;;;5128839;28;20189;-73
2024/01/13 04:21:51;;;;;;;70.10;31.33;;;-4.10;99.90;;;;;;5110396;28;21044;-73
2024/01/13 04:24:16;;;;;;;81.77;33.40;;;-4.00;99.90;;;;;;5132792;27;20177;-73
2024/01/13 04:26:43;;;;;;;67.50;32.17;;;-4.20;99.90;;;;;;5114347;27;20217;-73
2024/01/13 04:29:09;;;;;;;83.93;34.17;;;-4.20;99.90;;;;;;5132817;27;20897;-73
2024/01/13 04:31:35;;;;;;;82.60;32.55;;;-4.30;99.90;;;;;;5114126;27;20315;-72
2024/01/13 04:34:00;;;;;;;73.77;33.20;;;-4.40;99.90;;;;;;5132729;27;20268;-72
2024/01/13 04:36:26;;;;;;;70.93;32.73;;;-4.40;99.90;;;;;;5132567;27;20193;-73
2024/01/13 04:38:52;;;;;;;78.87;34.50;;;-4.30;99.90;;;;;;5132441;27;20200;-72
2024/01/13 04:41:17;;;;;;;77.23;32.47;;;-4.30;99.90;;;;;;5132513;27;20188;-72
2024/01/13 04:43:43;;;;;;;75.23;32.97;;;-4.10;99.90;;;;;;5132553;27;20177;-73
2024/01/13 04:46:10;;;;;;;80.20;34.60;;;-4.10;99.90;;;;;;5132655;27;20263;-72
2024/01/13 04:48:36;;;;;;;75.18;31.52;;;-4.00;99.90;;;;;;5114038;27;20197;-73
2024/01/13 04:51:03;;;;;;;77.90;33.15;;;-4.10;99.90;;;;;;5113755;27;20184;-74
2024/01/13 04:53:28;;;;;;;78.50;33.25;;;-4.10;99.90;;;;;;5113714;27;20687;-73
2024/01/13 04:55:55;;;;;;;75.50;32.10;;;-4.10;99.90;;;;;;5132401;27;20188;-71
2024/01/13 04:58:20;;;;;;;69.80;30.10;;;-4.00;99.90;;;;;;5132317;27;20442;-71
2024/01/13 05:00:46;;;;;;;76.50;32.27;;;-4.00;99.90;;;;;;5132437;27;20183;-72
2024/01/13 05:03:12;;;;;;;74.80;31.75;;;-4.00;99.90;;;;;;5132291;27;20213;-72
2024/01/13 05:05:38;;;;;;;68.63;32.20;;;-4.00;99.90;;;;;;5113768;27;20551;-72
2024/01/13 05:08:03;;;;;;;75.67;31.13;;;-4.00;99.90;;;;;;5132547;27;20299;-72
2024/01/13 05:10:29;;;;;;;71.70;30.70;;;-4.10;99.90;;;;;;5132423;27;20178;-72
2024/01/13 05:12:55;;;;;;;62.33;30.23;;;-4.10;99.90;;;;;;5113641;27;20419;-72
2024/01/13 05:15:21;;;;;;;75.20;33.70;;;-4.10;99.90;;;;;;5113818;27;20185;-72
2024/01/13 05:17:46;;;;;;;83.93;32.63;;;-4.00;99.90;;;;;;5132238;27;20201;-72
2024/01/13 05:20:12;;;;;;;74.80;31.00;;;-4.00;99.90;;;;;;5113863;27;20302;-72
2024/01/13 05:22:37;;;;;;;69.80;29.47;;;-4.00;99.90;;;;;;5113733;27;20216;-72
2024/01/13 05:25:04;;;;;;;80.67;34.47;;;-4.00;99.90;;;;;;5132411;27;20173;-72
2024/01/13 05:27:29;;;;;;;74.55;29.50;;;-4.10;99.90;;;;;;5132307;27;20200;-72
2024/01/13 05:29:55;;;;;;;69.57;29.23;;;-4.10;99.90;;;;;;5113508;27;20185;-72
2024/01/13 05:32:21;;;;;;;65.27;31.20;;;-4.20;99.90;;;;;;5132031;27;20262;-71
2024/01/13 05:34:46;;;;;;;74.70;30.53;;;-4.20;99.90;;;;;;5112988;27;20177;-72
2024/01/13 05:37:12;;;;;;;69.17;30.77;;;-4.50;99.90;;;;;;5113068;27;20600;-71
2024/01/13 05:39:37;;;;;;;68.43;29.57;;;-4.70;99.90;;;;;;5131698;27;20182;-73
2024/01/13 05:42:03;;;;;;;74.07;31.90;;;-4.90;99.90;;;;;;5131720;27;20224;-72
2024/01/13 05:44:29;;;;;;;73.10;32.23;;;-4.80;99.90;;;;;;5096841;27;20209;-72
2024/01/13 05:46:54;;;;;;;72.57;34.03;;;-4.70;99.90;;;;;;5113419;27;20179;-72
2024/01/13 05:49:20;;;;;;;77.17;32.33;;;-4.60;99.90;;;;;;5113714;27;20921;-71
2024/01/13 05:51:46;;;;;;;69.47;32.30;;;-4.60;99.90;;;;;;5131854;27;20184;-71
2024/01/13 05:54:11;;;;;;;67.80;30.93;;;-4.60;99.90;;;;;;5131204;27;20196;-72
2024/01/13 05:56:37;;;;;;;67.60;31.83;;;-4.70;99.90;;;;;;5131239;27;20192;-72
2024/01/13 05:59:02;;;;;;;62.10;30.23;;;-4.60;99.90;;;;;;5112507;27;20243;-73
2024/01/13 06:01:28;;;;;;;70.23;30.97;;;-4.60;99.90;;;;;;5130965;27;20180;-72
2024/01/13 06:03:54;;;;;;;76.17;30.83;;;-4.50;99.90;;;;;;5131232;27;20260;-72
2024/01/13 06:06:19;;;;;;;83.07;32.83;;;-4.40;99.90;;;;;;5131121;27;20172;-74
2024/01/13 06:08:45;;;;;;;70.50;30.03;;;-4.40;99.90;;;;;;5112558;27;20213;-73
2024/01/13 06:11:10;;;;;;;76.13;32.07;;;-4.30;99.90;;;;;;5112371;27;20180;-73
2024/01/13 06:13:36;;;;;;;74.33;31.00;;;-4.20;99.90;;;;;;5130939;27;20234;-73
2024/01/13 06:16:02;;;;;;;70.73;29.37;;;-4.20;99.90;;;;;;5112100;27;20689;-73
2024/01/13 06:18:27;;;;;;;66.93;29.93;;;-4.10;99.90;;;;;;5130975;27;20226;-73
2024/01/13 06:20:53;;;;;;;67.73;29.10;;;-4.10;99.90;;;;;;5112707;27;20196;-73
2024/01/13 06:23:19;;;;;;;73.73;30.00;;;-4.20;99.90;;;;;;5130900;27;20212;-73
2024/01/13 06:25:44;;;;;;;68.90;30.87;;;-4.20;99.90;;;;;;5130957;27;20250;-73
2024/01/13 06:28:10;;;;;;;64.63;26.93;;;-4.20;99.90;;;;;;5131019;27;20236;-73
2024/01/13 06:30:36;;;;;;;62.60;28.90;;;-4.20;99.90;;;;;;5130740;27;20173;-73
2024/01/13 06:33:02;;;;;;;65.30;29.60;;;-4.30;99.90;;;;;;5112715;27;20185;-73
2024/01/13 06:35:28;;;;;;;66.82;26.85;;;-4.30;99.90;;;;;;5112674;27;20230;-72
2024/01/13 06:37:53;;;;;;;57.60;26.87;;;-4.30;99.90;;;;;;5130378;27;20221;-72
2024/01/13 06:40:19;;;;;;;64.40;27.60;;;-4.30;99.90;;;;;;5130601;27;20692;-72
2024/01/13 06:42:44;;;;;;;61.33;26.97;;;-4.40;99.90;;;;;;5130532;27;20205;-73
2024/01/13 06:45:10;;;;;;;59.70;24.40;;;-4.30;99.90;;;;;;5111393;27;20174;-72
2024/01/13 06:47:36;;;;;;;69.70;26.40;;;-4.30;99.90;;;;;;5111983;27;20189;-73
2024/01/13 06:50:03;;;;;;;59.73;27.93;;;-4.30;99.90;;;;;;5095227;27;20257;-73
2024/01/13 06:52:28;;;;;;;66.10;29.05;;;-4.30;99.90;;;;;;5095198;27;20181;-72
2024/01/13 06:54:54;;;;;;;60.23;26.97;;;-4.50;99.90;;;;;;5130513;27;20186;-73
2024/01/13 06:57:20;;;;;;;76.17;30.57;;;-4.60;99.90;;;;;;5111781;27;20201;-73
2024/01/13 06:59:46;;;;;;;69.83;29.07;;;-4.80;99.90;;;;;;5111916;27;20188;-73
2024/01/13 07:02:12;;;;;;;70.70;31.92;;;-5.00;99.90;;;;;;5130289;27;20212;-73
2024/01/13 07:04:38;;;;;;;72.50;31.27;;;-4.90;99.90;;;;;;5111839;27;20636;-73
2024/01/13 07:07:05;;;;;;;74.10;30.77;;;-4.90;99.90;;;;;;5111762;27;20415;-73
2024/01/13 07:09:31;;;;;;;68.95;30.98;;;-4.80;99.90;;;;;;5111758;27;20204;-73
2024/01/13 07:11:56;;;;;;;74.83;30.10;;;-4.80;99.90;;;;;;5111832;27;20652;-73
2024/01/13 07:14:22;;;;;;;78.70;30.80;;;-4.70;99.90;;;;;;5130244;27;20429;-73
2024/01/13 07:16:48;;;;;;;66.63;29.87;;;-4.70;99.90;;;;;;5130102;27;20177;-73
2024/01/13 07:19:15;;;;;;;75.57;32.43;;;-4.70;99.90;;;;;;5130279;27;20682;-72
2024/01/13 07:21:41;;;;;;;68.65;29.30;;;-4.70;99.90;;;;;;5130516;27;20179;-73
2024/01/13 07:24:08;;;;;;;86.57;30.77;;;-4.60;99.90;;;;;;5130578;27;20173;-73
2024/01/13 07:26:40;;;;;;;71.40;29.73;;;-4.80;99.90;;;;;;5112008;27;20236;-73
2024/01/13 07:29:06;;;;;;;74.50;31.88;;;-4.80;99.90;;;;;;5130741;27;20196;-73
2024/01/13 07:31:32;;;;;;;78.03;30.97;;;-4.80;99.90;;;;;;5112604;28;20233;-73
2024/01/13 07:33:57;;;;;;;84.43;30.27;;;-4.70;99.90;;;;;;5131058;27;20278;-73
2024/01/13 07:36:23;;;;;;;63.07;28.20;;;-5.10;99.90;;;;;;5111889;28;20185;-73
2024/01/13 07:38:48;;;;;;;90.93;30.30;;;-5.20;99.90;;;;;;5112081;28;20284;-73
2024/01/13 07:41:14;;;;;;;75.90;28.97;;;-5.10;99.90;;;;;;5130739;28;20199;-73
2024/01/13 07:43:40;;;;;;;65.47;29.87;;;-5.10;99.90;;;;;;5111871;28;20212;-73
2024/01/13 07:46:05;;;;;;;86.67;32.07;;;-5.10;99.90;;;;;;5111735;28;20173;-73
2024/01/13 07:48:31;;;;;;;74.93;28.80;;;-5.00;99.90;;;;;;5130043;28;20242;-73
2024/01/13 07:50:56;;;;;;;75.93;29.97;;;-5.00;99.90;;;;;;5111639;28;20177;-73
2024/01/13 07:53:22;;;;;;;71.83;29.07;;;-4.80;99.90;;;;;;5130276;28;20340;-73
2024/01/13 07:55:48;;;;;;;74.53;28.10;;;-4.80;99.90;;;;;;5111478;27;20205;-73
2024/01/13 07:58:13;;;;;;;62.57;27.37;;;-4.80;99.90;;;;;;5133995;27;20197;-73
2024/01/13 08:00:39;;;;;;;73.87;28.10;;;-5.00;99.90;;;;;;5134188;27;20184;-73
2024/01/13 08:03:04;;;;;;;66.07;29.00;;;-4.90;99.90;;;;;;5098542;27;20270;-73
2024/01/13 08:05:31;;;;;;;78.30;29.47;;;-4.90;99.90;;;;;;5098278;27;20173;-73
2024/01/13 08:07:57;;;;;;;65.70;26.38;;;-4.90;99.90;;;;;;5115106;27;20287;-73
2024/01/13 08:10:23;;;;;;;63.40;27.35;;;-4.90;99.90;;;;;;5133668;27;20192;-73
2024/01/13 08:12:48;;;;;;;67.83;28.50;;;-4.90;99.90;;;;;;5133644;27;20173;-73
2024/01/13 08:15:14;;;;;;;68.73;28.53;;;-4.90;99.90;;;;;;5133603;27;20417;-73
2024/01/13 08:17:40;;;;;;;62.43;27.00;;;-4.90;99.90;;;;;;5133647;27;20268;-72
2024/01/13 08:20:09;;;;;;;56.07;25.30;;;-4.80;99.90;;;;;;5115030;27;20184;-72
2024/01/13 08:22:34;;;;;;;53.20;23.92;;;-4.80;99.90;;;;;;5097736;27;20989;-73
2024/01/13 08:25:00;;;;;;;61.50;26.03;;;-5.00;99.90;;;;;;5133331;27;20184;-73
2024/01/13 08:27:26;;;;;;;62.67;25.90;;;-5.00;99.90;;;;;;5132092;27;20199;-73
2024/01/13 08:29:52;;;;;;;62.20;25.55;;;-5.10;99.90;;;;;;5112920;27;20177;-71
2024/01/13 08:32:17;;;;;;;54.40;23.50;;;-5.20;99.90;;;;;;5112843;27;20227;-73
2024/01/13 08:34:43;;;;;;;61.30;26.07;;;-5.10;99.90;;;;;;5112637;27;20181;-73
2024/01/13 08:37:09;;;;;;;58.38;24.90;;;-5.20;99.90;;;;;;5112255;27;20256;-73
2024/01/13 08:39:35;;;;;;;59.73;26.33;;;-5.20;99.90;;;;;;5131074;27;20206;-73
2024/01/13 08:42:01;;;;;;;60.53;25.90;;;-5.20;99.90;;;;;;5112669;27;20215;-73
2024/01/13 08:44:27;;;;;;;57.50;25.85;;;-5.00;99.90;;;;;;5112511;27;20477;-73
2024/01/13 08:46:53;;;;;;;60.33;25.30;;;-4.80;99.90;;;;;;5112665;27;20205;-73
2024/01/13 08:49:20;;;;;;;53.03;24.10;;;-4.80;99.90;;;;;;5131134;27;20721;-73
2024/01/13 08:51:46;;;;;;;52.28;23.80;;;-4.70;99.90;;;;;;5131029;27;20717;-73
2024/01/13 08:54:11;;;;;;;64.50;24.77;;;-4.80;99.90;;;;;;5130949;27;20389;-72
2024/01/13 08:56:37;;;;;;;56.53;25.60;;;-4.70;99.90;;;;;;5130937;27;20813;-72
2024/01/13 08:59:03;;;;;;;55.20;25.83;;;-4.60;99.90;;;;;;5112373;27;20201;-72
2024/01/13 09:01:28;;;;;;;66.70;24.27;;;-4.50;99.90;;;;;;5131355;27;20189;-73
2024/01/13 09:03:54;;;;;;;52.90;25.30;;;-4.40;99.90;;;;;;5131029;27;20272;-72
2024/01/13 09:06:20;;;;;;;59.13;22.50;;;-4.30;99.90;;;;;;5095517;27;20205;-72
2024/01/13 09:08:45;;;;;;;52.07;22.67;;;-4.30;99.90;;;;;;5130069;27;20279;-73
2024/01/13 09:11:11;;;;;;;53.03;22.67;;;-4.40;99.90;;;;;;5131065;27;20173;-72
2024/01/13 09:13:37;;;;;;;56.07;24.50;;;-4.60;99.90;;;;;;5130841;27;20169;-72
2024/01/13 09:16:03;;;;;;;59.77;24.00;;;-4.60;99.90;;;;;;5095180;27;21027;-72
2024/01/13 09:18:28;;;;;;;52.47;24.87;;;-4.50;99.90;;;;;;5130793;27;20434;-72
2024/01/13 09:20:54;;;;;;;57.47;23.93;;;-4.50;99.90;;;;;;5131024;27;20181;-72
2024/01/13 09:23:20;;;;;;;57.50;23.07;;;-4.40;99.90;;;;;;5112396;27;20711;-73
2024/01/13 09:25:45;;;;;;;49.20;22.07;;;-4.70;99.90;;;;;;5130930;27;20181;-74
2024/01/13 09:28:11;;;;;;;60.70;25.70;;;-4.80;99.90;;;;;;5130879;27;20196;-73
2024/01/13 09:30:37;;;;;;;56.70;23.77;;;-4.80;99.90;;;;;;5112171;27;20185;-72
2024/01/13 09:33:04;;;;;;;62.33;23.70;;;-4.80;99.90;;;;;;5112397;27;20667;-72
2024/01/13 09:35:31;;;;;;;65.88;25.60;;;-4.70;99.90;;;;;;5112002;27;20461;-71
2024/01/13 09:37:58;;;;;;;53.47;25.55;;;-4.60;99.90;;;;;;5111977;27;20303;-73
2024/01/13 09:40:25;;;;;;;53.28;25.42;;;-4.50;99.90;;;;;;5130944;27;20195;-72
2024/01/13 09:43:10;;;;;;;56.55;23.52;;;-4.50;99.90;;;;;;5131082;27;20207;-73
2024/01/13 09:45:39;;;;;;;59.38;25.40;;;-4.50;99.90;;;;;;5130307;27;20184;-74
2024/01/13 09:48:08;;;;;;;61.65;26.08;;;-4.50;99.90;;;;;;5094373;27;20205;-73
2024/01/13 09:50:35;;;;;;;59.70;24.92;;;-4.70;99.90;;;;;;5111955;27;20200;-71
2024/01/13 09:53:05;;;;;;;73.30;26.17;;;-4.60;99.90;;;;;;5094653;27;20196;-72
2024/01/13 09:55:33;;;;;;;62.28;23.70;;;-4.60;99.90;;;;;;5112485;27;20181;-73
2024/01/13 09:57:59;;;;;;;70.60;26.05;;;-4.60;99.90;;;;;;5130153;27;20714;-73
2024/01/13 10:00:30;;;;;;;66.68;26.02;;;-4.40;99.90;;;;;;5130045;27;20263;-74
2024/01/13 10:02:56;;;;;;;74.93;25.35;;;-4.30;99.90;;;;;;5111251;27;20248;-72
2024/01/13 10:05:22;;;;;;;82.82;26.10;;;-4.50;99.90;;;;;;5094267;27;21182;-73
2024/01/13 10:07:52;;;;;;;63.40;25.17;;;-4.60;99.90;;;;;;5129824;27;20284;-74
2024/01/13 10:10:19;;;;;;;61.72;22.95;;;-4.50;99.90;;;;;;5129588;27;20191;-72
2024/01/13 10:12:44;;;;;;;59.13;23.75;;;-4.70;99.90;;;;;;5129581;27;20277;-73
2024/01/13 10:15:16;;;;;;;61.23;25.30;;;-4.70;99.90;;;;;;5093778;27;20228;-73
2024/01/13 10:17:43;;;;;;;73.50;22.60;;;-4.90;99.90;;;;;;5129162;27;20702;-73
2024/01/13 10:20:13;;;;;;;60.30;24.35;;;-4.90;99.90;;;;;;5109695;27;20193;-73
2024/01/13 10:22:39;;;;;;;70.85;24.48;;;-5.00;99.90;;;;;;5128886;27;20246;-73
2024/01/13 10:25:07;;;;;;;59.63;24.70;;;-4.90;99.90;;;;;;5129072;27;20208;-73
2024/01/13 10:27:35;;;;;;;76.65;26.63;;;-4.80;99.90;;;;;;5129102;27;20644;-73
2024/01/13 10:30:04;;;;;;;63.47;26.63;;;-4.90;99.90;;;;;;5129058;27;20653;-73
2024/01/13 10:32:30;;;;;;;61.50;26.00;;;-4.80;99.90;;;;;;5129102;27;20631;-73
2024/01/13 10:34:56;;;;;;;110.93;27.60;;;-4.50;99.90;;;;;;5076720;27;20179;-73
2024/01/13 10:37:21;;;;;;;71.70;26.80;;;-4.40;99.90;;;;;;5110856;27;20727;-73
2024/01/13 10:39:48;;;;;;;61.73;26.00;;;-4.50;99.90;;;;;;5111166;27;20203;-73
2024/01/13 10:42:16;;;;;;;70.70;28.50;;;-4.30;99.90;;;;;;5111214;27;20205;-73
2024/01/13 10:44:46;;;;;;;69.25;26.63;;;-4.20;99.90;;;;;;5129369;27;20213;-73
2024/01/13 10:47:15;;;;;;;59.90;24.83;;;-4.00;99.90;;;;;;5094214;27;20201;-73
2024/01/13 10:49:42;;;;;;;66.97;27.98;;;-3.90;99.90;;;;;;5110737;27;20179;-73
2024/01/13 10:52:13;;;;;;;76.10;29.13;;;-4.00;99.90;;;;;;5111099;27;20198;-72
2024/01/13 10:54:40;;;;;;;64.47;28.08;;;-3.90;99.90;;;;;;5111359;27;20173;-73
2024/01/13 10:57:06;;;;;;;76.35;29.77;;;-3.90;99.90;;;;;;5128594;27;20557;-73
2024/01/13 10:59:35;;;;;;;57.67;25.67;;;-3.80;99.90;;;;;;5110793;27;20231;-73
2024/01/13 11:02:00;;;;;;;72.95;30.10;;;-3.60;99.90;;;;;;5110784;27;20201;-72
2024/01/13 11:04:27;;;;;;;62.93;27.10;;;-3.70;99.90;;;;;;5110457;27;20176;-73
2024/01/13 11:06:52;;;;;;;65.55;28.55;;;-3.70;99.90;;;;;;5110484;27;20181;-73
2024/01/13 11:09:20;;;;;;;55.10;24.50;;;-3.70;99.90;;;;;;5128910;27;20174;-72
2024/01/13 11:12:01;;;;;;;52.38;21.30;;;-3.50;99.90;;;;;;5110556;27;20181;-73
2024/01/13 11:14:34;;;;;;;54.88;22.60;;;-3.50;99.90;;;;;;5110269;27;20187;-73
2024/01/13 11:17:01;;;;;;;50.92;20.05;;;-3.50;99.90;;;;;;5128623;27;20169;-73
2024/01/13 11:19:26;;;;;;;46.10;21.15;;;-3.60;99.90;;;;;;5110606;27;20177;-72
2024/01/13 11:21:52;;;;;;;46.77;20.40;;;-3.60;99.90;;;;;;5128427;27;20231;-73
2024/01/13 11:24:19;;;;;;;54.60;22.67;;;-3.90;99.90;;;;;;5110436;28;20264;-73
2024/01/13 11:26:48;;;;;;;57.50;24.15;;;-4.00;99.90;;;;;;5110284;27;20182;-73
2024/01/13 11:29:21;;;;;;;54.72;23.48;;;-3.90;99.90;;;;;;5109898;28;20181;-73
2024/01/13 11:31:53;;;;;;;67.32;25.95;;;-3.70;99.90;;;;;;5128012;27;20176;-73
2024/01/13 11:34:19;;;;;;;57.80;24.20;;;-3.60;99.90;;;;;;5128564;27;20165;-72
2024/01/13 11:36:50;;;;;;;52.10;23.35;;;-3.50;99.90;;;;;;5110140;28;20702;-72
2024/01/13 11:39:17;;;;;;;43.97;19.50;;;-3.50;99.90;;;;;;5110693;28;20912;-72
2024/01/13 11:41:46;;;;;;;51.60;22.85;;;-3.60;99.90;;;;;;5128484;28;20628;-73
2024/01/13 11:44:20;;;;;;;47.05;21.67;;;-3.50;99.90;;;;;;5128356;28;20309;-73
2024/01/13 11:47:01;;;;;;;44.78;19.52;;;-3.30;99.90;;;;;;5128497;28;20823;-73
2024/01/13 11:49:33;;;;;;;39.38;17.65;;;-3.20;99.90;;;;;;5109920;28;20181;-72
2024/01/13 11:52:06;;;;;;;42.35;17.63;;;-3.20;99.90;;;;;;5128354;28;20192;-73
2024/01/13 11:54:34;;;;;;;45.08;18.70;;;-3.30;99.90;;;;;;5109622;28;20284;-72
2024/01/13 11:57:03;;;;;;;47.50;20.08;;;-3.40;99.90;;;;;;5128587;28;20525;-73
2024/01/13 11:59:29;;;;;;;47.25;19.90;;;-3.40;99.90;;;;;;5128312;28;20177;-73
2024/01/13 12:01:56;;;;;;;50.40;21.90;;;-3.70;99.90;;;;;;5109385;28;20295;-73
2024/01/13 12:04:25;;;;;;;47.67;20.05;;;-3.60;99.90;;;;;;5109571;28;20180;-72
2024/01/13 12:06:53;;;;;;;50.67;19.40;;;-3.70;99.90;;;;;;5109451;28;20173;-72
2024/01/13 12:09:24;;;;;;;38.47;18.08;;;-3.70;99.90;;;;;;5128168;28;20169;-72
2024/01/13 12:11:57;;;;;;;38.80;16.58;;;-3.80;99.90;;;;;;5128173;28;20648;-72
2024/01/13 12:14:25;;;;;;;33.85;16.73;;;-3.70;99.90;;;;;;5128471;28;20177;-71
2024/01/13 12:16:55;;;;;;;45.72;19.27;;;-3.90;99.90;;;;;;5128519;28;20184;-72
2024/01/13 12:19:21;;;;;;;48.45;20.38;;;-3.80;99.90;;;;;;5093716;28;20602;-71
2024/01/13 12:21:47;;;;;;;46.97;20.75;;;-3.60;99.90;;;;;;5110314;28;20226;-72